In Rescue
 
Open Full Screen Window  High Contrast Mode
November 19, 2019 12:59 PM EST
Weather Information
Wind Direction
  ---
Wind Speed
  00 kt (0 mph)
Wind Gust
  00 kt (0 mph)
Altimeter
29.81 in
Visibility
10 SM
Temperature
11° C
52° F
Dewpoint
03° C
37° F
Humidity
58%
1hr Rain Fall
00.00 in.
24hr Rain Fall
00.00 in.
Sky Condition
Clear
VFR

METAR KI69 191759Z AUTO 00000KT 10SM CLR 11/03 A2981 RMK AO2 T01050026

FAA Disclaimer: The data displayed is for advisory purposes only and is not to be used for flight planning or operations.